createdAt,value
2018-10-07T00:01:39.339Z,6.37
2018-10-07T00:04:06.856Z,6.67
2018-10-07T00:06:34.349Z,6.33
2018-10-07T00:09:01.852Z,5.40
2018-10-07T00:11:29.336Z,4.13
2018-10-07T00:13:56.849Z,4.23
2018-10-07T00:16:24.357Z,6.00
2018-10-07T00:18:51.839Z,6.63
2018-10-07T00:21:19.465Z,7.00
2018-10-07T00:23:46.968Z,4.07
2018-10-07T00:26:14.470Z,5.50
2018-10-07T00:28:41.955Z,2.53
2018-10-07T00:31:09.435Z,5.13
2018-10-07T00:33:36.928Z,4.17
2018-10-07T00:36:04.424Z,5.23
2018-10-07T00:38:31.956Z,4.60
2018-10-07T00:40:59.475Z,3.90
2018-10-07T00:43:26.991Z,3.50
2018-10-07T00:45:54.475Z,4.70
2018-10-07T00:48:22.011Z,4.33
2018-10-07T00:50:49.499Z,4.17
2018-10-07T00:53:17.008Z,4.70
2018-10-07T00:55:44.523Z,5.57
2018-10-07T00:58:12.031Z,6.70
2018-10-07T01:00:39.506Z,5.07
2018-10-07T01:03:06.994Z,4.67
2018-10-07T01:05:34.486Z,2.37
2018-10-07T01:08:01.993Z,2.57
2018-10-07T01:10:29.504Z,3.03
2018-10-07T01:12:57.026Z,5.13
2018-10-07T01:15:24.524Z,3.83
2018-10-07T01:17:52.056Z,4.03
2018-10-07T01:20:19.548Z,6.97
2018-10-07T01:22:47.044Z,6.13
2018-10-07T01:25:14.531Z,6.97
2018-10-07T01:27:42.060Z,3.87
2018-10-07T01:30:09.708Z,4.93
2018-10-07T01:32:37.201Z,6.77
2018-10-07T01:35:04.690Z,4.43
2018-10-07T01:37:32.189Z,2.80
2018-10-07T01:39:59.688Z,3.67
2018-10-07T01:42:27.205Z,2.90
2018-10-07T01:44:54.713Z,4.27
2018-10-07T01:47:22.230Z,6.10
2018-10-07T01:49:49.727Z,5.07
2018-10-07T01:52:17.239Z,4.70
2018-10-07T01:54:44.756Z,5.03
2018-10-07T01:57:12.316Z,8.07
2018-10-07T01:59:39.896Z,6.90
2018-10-07T02:02:07.395Z,4.60
2018-10-07T02:04:34.870Z,4.43
2018-10-07T02:07:02.346Z,5.43
2018-10-07T02:09:29.839Z,3.07
2018-10-07T02:11:57.340Z,2.57
2018-10-07T02:14:24.869Z,4.70
2018-10-07T02:16:52.348Z,6.20
2018-10-07T02:19:19.871Z,2.03
2018-10-07T02:21:47.375Z,4.77
2018-10-07T02:24:14.994Z,6.43
2018-10-07T02:26:42.480Z,6.87
2018-10-07T02:29:09.983Z,3.87
2018-10-07T02:31:37.667Z,5.13
2018-10-07T02:34:05.208Z,4.63
2018-10-07T02:36:32.716Z,8.00
2018-10-07T02:39:00.285Z,7.40
2018-10-07T02:41:27.787Z,6.00
2018-10-07T02:43:55.291Z,5.93
2018-10-07T02:46:22.775Z,5.63
2018-10-07T02:48:50.279Z,3.20
2018-10-07T02:51:17.771Z,5.10
2018-10-07T02:53:45.260Z,6.87
2018-10-07T02:56:12.767Z,3.93
2018-10-07T02:58:40.279Z,2.10
2018-10-07T03:01:07.760Z,3.27
2018-10-07T03:03:35.260Z,2.53
2018-10-07T03:06:02.747Z,3.50
2018-10-07T03:08:30.283Z,4.83
2018-10-07T03:10:57.783Z,5.70
2018-10-07T03:13:25.299Z,3.60
2018-10-07T03:15:52.794Z,6.90
2018-10-07T03:18:20.316Z,3.00
2018-10-07T03:20:47.818Z,2.47
2018-10-07T03:23:15.335Z,2.77
2018-10-07T03:25:42.849Z,4.10
2018-10-07T03:28:10.369Z,4.47
2018-10-07T03:30:37.880Z,1.93
2018-10-07T03:33:05.367Z,4.07
2018-10-07T03:35:32.862Z,2.43
2018-10-07T03:38:00.387Z,4.77
2018-10-07T03:40:27.867Z,4.30
2018-10-07T03:42:55.360Z,3.10
2018-10-07T03:45:22.936Z,5.17
2018-10-07T03:47:50.433Z,3.77
2018-10-07T03:50:17.936Z,2.27
2018-10-07T03:52:45.427Z,4.27
2018-10-07T03:55:12.948Z,2.90
2018-10-07T03:57:40.451Z,4.73
2018-10-07T04:00:08.016Z,2.93
2018-10-07T04:02:35.521Z,5.30
2018-10-07T04:05:03.018Z,6.60
2018-10-07T04:07:30.515Z,3.07
2018-10-07T04:09:58.024Z,3.43
2018-10-07T04:12:25.527Z,3.93
2018-10-07T04:14:53.055Z,4.37
2018-10-07T04:17:20.546Z,3.27
2018-10-07T04:19:48.062Z,3.93
2018-10-07T04:22:15.578Z,5.37
2018-10-07T04:24:43.142Z,3.40
2018-10-07T04:27:10.663Z,5.07
2018-10-07T04:29:38.160Z,6.53
2018-10-07T04:32:05.666Z,5.17
2018-10-07T04:34:33.192Z,2.77
2018-10-07T04:37:00.772Z,2.77
2018-10-07T04:39:28.248Z,4.10
2018-10-07T04:41:55.755Z,3.03
2018-10-07T04:44:23.267Z,3.63
2018-10-07T04:46:50.756Z,5.03
2018-10-07T04:49:18.267Z,3.70
2018-10-07T04:51:45.899Z,4.03
2018-10-07T04:54:13.427Z,4.97
2018-10-07T04:56:41.113Z,4.97
2018-10-07T04:59:08.648Z,6.27
2018-10-07T05:01:36.153Z,3.73
2018-10-07T05:04:03.651Z,5.77
2018-10-07T05:06:33.433Z,4.33
2018-10-07T05:09:02.311Z,4.77
2018-10-07T05:11:29.960Z,3.90
2018-10-07T05:13:57.612Z,6.33
2018-10-07T05:16:28.224Z,8.17
2018-10-07T05:18:55.743Z,2.20
2018-10-07T05:21:23.251Z,3.20
2018-10-07T05:23:50.760Z,3.90
2018-10-07T05:26:18.290Z,3.43
2018-10-07T05:28:45.823Z,4.37
2018-10-07T05:31:13.319Z,3.80
2018-10-07T05:33:40.855Z,7.37
2018-10-07T05:36:08.440Z,6.53
2018-10-07T05:38:35.968Z,3.03
2018-10-07T05:41:03.531Z,4.37
2018-10-07T05:43:31.050Z,3.70
2018-10-07T05:45:58.723Z,6.30
2018-10-07T05:48:26.257Z,3.87
2018-10-07T05:50:53.836Z,4.27
2018-10-07T05:53:21.352Z,4.70
2018-10-07T05:55:48.990Z,3.10
2018-10-07T05:58:16.435Z,3.93
2018-10-07T06:00:44.300Z,4.37
2018-10-07T06:03:21.612Z,3.00
2018-10-07T06:05:50.114Z,2.00
2018-10-07T06:08:18.511Z,3.40
2018-10-07T06:10:46.019Z,4.07
2018-10-07T06:13:13.535Z,5.83
2018-10-07T06:15:42.268Z,3.03
2018-10-07T06:18:09.776Z,4.53
2018-10-07T06:20:37.303Z,4.63
2018-10-07T06:23:04.811Z,2.77
2018-10-07T06:25:32.372Z,4.83
2018-10-07T06:27:59.861Z,4.87
2018-10-07T06:30:27.352Z,4.10
2018-10-07T06:32:54.854Z,2.90
2018-10-07T06:35:23.315Z,2.70
2018-10-07T06:37:50.819Z,4.40
2018-10-07T06:40:18.348Z,5.07
2018-10-07T06:42:45.852Z,3.77
2018-10-07T06:45:13.368Z,3.87
2018-10-07T06:47:40.941Z,2.10
2018-10-07T06:50:08.481Z,2.60
2018-10-07T06:52:35.971Z,6.87
2018-10-07T06:55:03.459Z,6.27
2018-10-07T06:57:31.100Z,3.70
2018-10-07T06:59:59.142Z,2.60
2018-10-07T07:02:26.690Z,7.13
2018-10-07T07:05:01.364Z,2.67
2018-10-07T07:07:28.883Z,2.47
2018-10-07T07:09:56.387Z,3.90
2018-10-07T07:12:23.927Z,5.40
2018-10-07T07:14:51.454Z,2.77
2018-10-07T07:17:18.947Z,4.17
2018-10-07T07:19:46.511Z,3.13
2018-10-07T07:22:14.288Z,3.03
2018-10-07T07:24:41.896Z,2.60
2018-10-07T07:27:09.395Z,3.20
2018-10-07T07:29:36.915Z,5.13
2018-10-07T07:32:04.452Z,3.00
2018-10-07T07:34:32.009Z,2.40
2018-10-07T07:37:00.513Z,2.93
2018-10-07T07:39:27.956Z,3.93
2018-10-07T07:41:55.858Z,4.63
2018-10-07T07:44:23.388Z,4.77
2018-10-07T07:46:50.908Z,3.47
2018-10-07T07:49:18.582Z,2.47
2018-10-07T07:51:46.076Z,3.20
2018-10-07T07:54:13.612Z,4.80
2018-10-07T07:56:41.125Z,4.83
2018-10-07T07:59:08.615Z,2.60
2018-10-07T08:01:36.155Z,4.87
2018-10-07T08:04:03.636Z,5.90
2018-10-07T08:06:31.152Z,6.93
2018-10-07T08:08:58.693Z,4.30
2018-10-07T08:11:26.205Z,4.63
2018-10-07T08:13:53.717Z,6.80
2018-10-07T08:16:21.243Z,4.67
2018-10-07T08:18:48.785Z,4.70
2018-10-07T08:21:16.315Z,1.80
2018-10-07T08:23:43.825Z,6.90
2018-10-07T08:26:11.351Z,4.93
2018-10-07T08:28:38.845Z,2.57
2018-10-07T08:31:06.406Z,4.13
2018-10-07T08:33:33.924Z,4.30
2018-10-07T08:36:01.452Z,2.67
2018-10-07T08:38:28.996Z,6.00
2018-10-07T08:40:56.496Z,8.00
2018-10-07T08:43:23.987Z,7.03
2018-10-07T08:45:51.511Z,4.57
2018-10-07T08:48:18.995Z,4.70
2018-10-07T08:50:46.532Z,2.80
2018-10-07T08:53:14.038Z,3.73
2018-10-07T08:55:41.563Z,4.10
2018-10-07T08:58:09.055Z,4.90
2018-10-07T09:00:36.843Z,3.10
2018-10-07T09:03:04.429Z,5.33
2018-10-07T09:05:31.960Z,5.80
2018-10-07T09:07:59.451Z,4.20
2018-10-07T09:10:26.934Z,7.37
2018-10-07T09:12:54.511Z,4.33
2018-10-07T09:15:22.012Z,9.73
2018-10-07T09:17:49.520Z,6.83
2018-10-07T09:20:17.045Z,3.43
2018-10-07T09:22:44.563Z,5.43
2018-10-07T09:25:12.080Z,6.00
2018-10-07T09:27:39.652Z,6.60
2018-10-07T09:30:07.115Z,5.43
2018-10-07T09:32:34.973Z,5.70
2018-10-07T09:35:02.516Z,2.73
2018-10-07T09:37:30.036Z,4.27
2018-10-07T09:39:57.591Z,2.33
2018-10-07T09:42:25.155Z,7.73
2018-10-07T09:44:52.727Z,5.47
2018-10-07T09:47:20.355Z,5.30
2018-10-07T09:49:47.788Z,5.97
2018-10-07T09:52:15.337Z,5.43
2018-10-07T09:54:42.928Z,5.50
2018-10-07T09:57:10.553Z,9.97
2018-10-07T09:59:38.058Z,3.20
2018-10-07T10:02:05.671Z,4.67
2018-10-07T10:04:33.217Z,5.53
2018-10-07T10:07:00.771Z,4.13
2018-10-07T10:09:28.242Z,6.50
2018-10-07T10:11:55.746Z,5.93
2018-10-07T10:14:23.268Z,5.40
2018-10-07T10:17:11.071Z,3.43
2018-10-07T10:19:50.407Z,4.77
2018-10-07T10:22:30.440Z,3.73
2018-10-07T10:25:20.685Z,4.83
2018-10-07T10:27:56.392Z,3.50
2018-10-07T10:30:29.821Z,4.03
2018-10-07T10:33:01.052Z,3.60
2018-10-07T10:35:34.765Z,4.67
2018-10-07T10:38:19.830Z,3.57
2018-10-07T10:40:52.601Z,3.03
2018-10-07T10:43:27.136Z,4.00
2018-10-07T10:46:14.250Z,3.90
2018-10-07T10:48:50.867Z,2.47
2018-10-07T10:51:23.302Z,2.73
2018-10-07T10:53:58.332Z,3.03
2018-10-07T10:56:29.066Z,4.37
2018-10-07T10:59:51.016Z,2.50
2018-10-07T11:02:31.143Z,2.50
2018-10-07T11:05:10.013Z,3.70
2018-10-07T11:09:47.871Z,4.80
2018-10-07T11:12:27.657Z,3.30
2018-10-07T11:15:06.290Z,3.23
2018-10-07T11:18:46.980Z,7.00
2018-10-07T11:21:56.189Z,4.63
2018-10-07T11:25:30.550Z,3.20
2018-10-07T11:28:37.823Z,2.27
2018-10-07T11:31:13.640Z,5.27
2018-10-07T11:34:36.542Z,4.07
2018-10-07T11:37:13.811Z,4.70
2018-10-07T11:40:00.151Z,3.90
2018-10-07T11:42:38.002Z,3.47
2018-10-07T11:45:46.033Z,3.20
2018-10-07T11:48:24.087Z,3.40
2018-10-07T11:51:00.668Z,1.70
2018-10-07T11:53:43.302Z,2.43
2018-10-07T11:56:10.836Z,2.80
2018-10-07T11:58:38.418Z,3.43
2018-10-07T12:01:06.068Z,2.20
2018-10-07T12:03:33.860Z,1.63
2018-10-07T12:06:01.388Z,3.00
2018-10-07T12:08:28.974Z,2.80
2018-10-07T12:10:56.467Z,5.37
2018-10-07T12:13:23.947Z,3.23
2018-10-07T12:15:51.468Z,2.37
2018-10-07T12:18:18.978Z,3.93
2018-10-07T12:20:46.524Z,2.40
2018-10-07T12:23:14.096Z,3.80
2018-10-07T12:25:41.624Z,2.77
2018-10-07T12:28:09.423Z,3.20
2018-10-07T12:30:36.931Z,3.53
2018-10-07T12:33:04.435Z,3.07
2018-10-07T12:35:31.970Z,4.37
2018-10-07T12:37:59.468Z,2.57
2018-10-07T12:40:27.001Z,1.30
2018-10-07T12:42:54.544Z,3.17
2018-10-07T12:45:22.076Z,5.10
2018-10-07T12:47:49.673Z,1.40
2018-10-07T12:50:17.220Z,3.93
2018-10-07T12:52:45.085Z,5.53
2018-10-07T12:55:12.600Z,2.17
2018-10-07T12:57:40.109Z,2.47
2018-10-07T13:00:07.664Z,6.20
2018-10-07T13:02:35.235Z,2.47
2018-10-07T13:05:02.743Z,4.37
2018-10-07T13:07:30.255Z,3.73
2018-10-07T13:09:57.782Z,3.07
2018-10-07T13:12:25.293Z,5.50
2018-10-07T13:14:52.815Z,3.57
2018-10-07T13:17:20.323Z,3.57
2018-10-07T13:19:47.894Z,2.77
2018-10-07T13:22:15.413Z,3.70
2018-10-07T13:24:42.932Z,2.97
2018-10-07T13:27:10.483Z,2.43
2018-10-07T13:29:38.003Z,4.53
2018-10-07T13:32:05.611Z,1.43
2018-10-07T13:34:33.119Z,3.13
2018-10-07T13:37:00.624Z,2.83
2018-10-07T13:39:28.132Z,2.50
2018-10-07T13:41:55.691Z,4.10
2018-10-07T13:44:23.218Z,1.47
2018-10-07T13:46:50.748Z,2.73
2018-10-07T13:49:18.308Z,4.17
2018-10-07T13:51:45.811Z,3.03
2018-10-07T13:54:13.321Z,2.37
2018-10-07T13:56:40.849Z,2.40
2018-10-07T13:59:08.400Z,5.03
2018-10-07T14:01:35.929Z,2.37
2018-10-07T14:04:03.457Z,2.97
2018-10-07T14:06:30.989Z,1.63
2018-10-07T14:08:58.538Z,3.37
2018-10-07T14:11:26.121Z,1.77
2018-10-07T14:13:53.616Z,1.73
2018-10-07T14:16:21.168Z,2.93
2018-10-07T14:18:48.690Z,2.30
2018-10-07T14:21:16.239Z,4.07
2018-10-07T14:23:43.768Z,2.93
2018-10-07T14:26:11.268Z,4.80
2018-10-07T14:28:38.799Z,2.00
2018-10-07T14:31:06.559Z,4.23
2018-10-07T14:33:34.040Z,2.27
2018-10-07T14:36:01.564Z,1.17
2018-10-07T14:38:29.060Z,1.67
2018-10-07T14:40:56.572Z,2.83
2018-10-07T14:43:24.116Z,4.33
2018-10-07T14:45:51.635Z,3.53
2018-10-07T14:48:19.163Z,3.90
2018-10-07T14:50:46.691Z,1.43
2018-10-07T14:53:14.320Z,2.47
2018-10-07T14:55:41.858Z,3.43
2018-10-07T14:58:09.407Z,3.20
2018-10-07T15:00:36.918Z,4.23
2018-10-07T15:03:04.576Z,2.93
2018-10-07T15:05:32.107Z,3.07
2018-10-07T15:07:59.757Z,2.13
2018-10-07T15:10:27.263Z,2.60
2018-10-07T15:12:55.554Z,9.47
2018-10-07T15:15:23.175Z,4.17
2018-10-07T15:17:50.832Z,3.93
2018-10-07T15:20:18.492Z,1.93
2018-10-07T15:22:46.116Z,3.53
2018-10-07T15:25:13.603Z,2.93
2018-10-07T15:27:41.110Z,2.83
2018-10-07T15:30:08.714Z,3.00
2018-10-07T15:32:36.443Z,2.63
2018-10-07T15:35:03.979Z,3.07
2018-10-07T15:37:31.628Z,0.93
2018-10-07T15:39:59.308Z,3.47
2018-10-07T15:42:26.844Z,5.17
2018-10-07T15:44:54.468Z,2.50
2018-10-07T15:47:22.009Z,2.17
2018-10-07T15:49:49.650Z,3.20
2018-10-07T15:52:17.387Z,3.13
2018-10-07T15:54:44.889Z,4.43
2018-10-07T15:57:12.427Z,2.40
2018-10-07T15:59:40.152Z,2.07
2018-10-07T16:02:08.002Z,2.23
2018-10-07T16:04:35.577Z,2.53
2018-10-07T16:07:03.279Z,2.40
2018-10-07T16:09:30.798Z,3.00
2018-10-07T16:11:58.283Z,3.17
2018-10-07T16:14:25.977Z,4.33
2018-10-07T16:16:53.798Z,1.50
2018-10-07T16:19:21.898Z,3.90
2018-10-07T16:21:49.612Z,2.93
2018-10-07T16:24:17.172Z,2.37
2018-10-07T16:26:45.370Z,2.30
2018-10-07T16:29:12.874Z,2.60
2018-10-07T16:31:41.306Z,1.93
2018-10-07T16:34:08.956Z,4.13
2018-10-07T16:36:36.484Z,3.17
2018-10-07T16:39:04.704Z,2.70
2018-10-07T16:41:32.376Z,2.63
2018-10-07T16:44:00.021Z,4.43
2018-10-07T16:46:27.771Z,5.67
2018-10-07T16:48:55.353Z,7.47
2018-10-07T16:51:22.947Z,2.53
2018-10-07T16:53:50.491Z,2.77
2018-10-07T16:56:18.192Z,3.53
2018-10-07T16:58:46.052Z,2.17
2018-10-07T17:01:13.767Z,2.20
2018-10-07T17:03:42.008Z,4.93
2018-10-07T17:06:10.269Z,3.53
2018-10-07T17:08:37.844Z,5.40
2018-10-07T17:11:06.471Z,4.27
2018-10-07T17:13:34.000Z,3.33
2018-10-07T17:16:01.713Z,5.67
2018-10-07T17:18:29.591Z,5.10
2018-10-07T17:20:57.117Z,2.97
2018-10-07T17:23:24.766Z,6.13
2018-10-07T17:25:52.514Z,5.20
2018-10-07T17:28:20.317Z,4.00
2018-10-07T17:30:48.067Z,3.53
2018-10-07T17:33:15.625Z,5.07
2018-10-07T17:35:43.288Z,3.47
2018-10-07T17:38:11.246Z,7.10
2018-10-07T17:40:38.803Z,8.47
2018-10-07T17:43:06.460Z,4.93
2018-10-07T17:45:34.005Z,7.37
2018-10-07T17:48:01.585Z,5.50
2018-10-07T17:50:29.507Z,6.23
2018-10-07T17:52:56.992Z,7.97
2018-10-07T17:55:24.679Z,6.13
2018-10-07T17:57:52.196Z,8.50
2018-10-07T18:00:19.947Z,6.70
2018-10-07T18:02:47.661Z,6.87
2018-10-07T18:05:15.481Z,5.93
2018-10-07T18:07:43.123Z,9.37
2018-10-07T18:10:10.652Z,6.80
2018-10-07T18:12:38.689Z,7.83
2018-10-07T18:15:06.506Z,10.40
2018-10-07T18:17:34.283Z,9.63
2018-10-07T18:20:01.884Z,7.67
2018-10-07T18:22:29.860Z,9.40
2018-10-07T18:24:57.348Z,16.20
2018-10-07T18:27:25.140Z,18.03
2018-10-07T18:29:52.660Z,16.33
2018-10-07T18:32:20.208Z,15.90
2018-10-07T18:34:47.855Z,13.33
2018-10-07T18:37:15.285Z,13.27
2018-10-07T18:39:43.126Z,12.70
2018-10-07T18:42:10.752Z,14.30
2018-10-07T18:44:38.387Z,13.07
2018-10-07T18:47:06.075Z,13.00
2018-10-07T18:49:33.735Z,14.13
2018-10-07T18:52:01.267Z,12.20
2018-10-07T18:54:28.984Z,11.90
2018-10-07T18:56:56.655Z,10.53
2018-10-07T18:59:24.408Z,11.33
2018-10-07T19:01:51.947Z,10.47
2018-10-07T19:04:19.723Z,9.40
2018-10-07T19:06:47.376Z,11.63
2018-10-07T19:09:15.388Z,11.40
2018-10-07T19:11:42.927Z,10.40
2018-10-07T19:14:10.713Z,9.27
2018-10-07T19:16:38.401Z,10.77
2018-10-07T19:19:06.110Z,11.37
2018-10-07T19:21:33.635Z,8.97
2018-10-07T19:24:01.451Z,12.47
2018-10-07T19:26:28.943Z,8.23
2018-10-07T19:28:56.613Z,9.80
2018-10-07T19:31:24.279Z,10.10
2018-10-07T19:33:51.968Z,9.90
2018-10-07T19:36:19.727Z,10.17
2018-10-07T19:38:47.351Z,10.43
2018-10-07T19:41:14.885Z,11.67
2018-10-07T19:43:42.564Z,8.27
2018-10-07T19:46:10.253Z,11.63
2018-10-07T19:48:37.867Z,7.43
2018-10-07T19:51:05.606Z,8.67
2018-10-07T19:53:33.245Z,12.33
2018-10-07T19:56:00.878Z,7.90
2018-10-07T19:58:28.368Z,8.10
2018-10-07T20:00:55.989Z,10.80
2018-10-07T20:03:23.682Z,10.30
2018-10-07T20:05:51.416Z,7.80
2018-10-07T20:08:19.158Z,9.90
2018-10-07T20:10:46.990Z,9.37
2018-10-07T20:13:14.831Z,10.70
2018-10-07T20:15:42.459Z,10.47
2018-10-07T20:18:10.270Z,10.83
2018-10-07T20:20:38.146Z,12.07
2018-10-07T20:23:06.081Z,11.80
2018-10-07T20:25:33.882Z,10.53
2018-10-07T20:28:01.473Z,12.10
2018-10-07T20:30:29.257Z,11.30
2018-10-07T20:32:56.803Z,9.90
2018-10-07T20:35:24.644Z,13.47
2018-10-07T20:37:52.283Z,10.43
2018-10-07T20:40:20.196Z,12.40
2018-10-07T20:42:47.720Z,12.53
2018-10-07T20:45:15.240Z,11.03
2018-10-07T20:47:42.775Z,9.93
2018-10-07T20:50:10.262Z,9.73
2018-10-07T20:52:37.831Z,10.47
2018-10-07T20:55:05.255Z,7.67
2018-10-07T20:57:32.780Z,10.03
2018-10-07T21:00:00.269Z,9.20
2018-10-07T21:02:27.806Z,5.73
2018-10-07T21:04:55.266Z,9.27
2018-10-07T21:07:22.795Z,6.73
2018-10-07T21:09:50.297Z,7.47
2018-10-07T21:12:17.825Z,6.93
2018-10-07T21:14:45.572Z,8.83
2018-10-07T21:17:13.153Z,7.23
2018-10-07T21:19:40.847Z,8.30
2018-10-07T21:22:10.833Z,7.97
2018-10-07T21:24:38.365Z,9.30
2018-10-07T21:27:06.050Z,8.00
2018-10-07T21:29:33.556Z,5.27
2018-10-07T21:32:01.123Z,8.00
2018-10-07T21:34:28.648Z,5.00
2018-10-07T21:36:56.180Z,7.93
2018-10-07T21:39:23.683Z,8.70
2018-10-07T21:41:51.258Z,7.17
2018-10-07T21:44:18.720Z,7.47
2018-10-07T21:46:46.366Z,4.67
2018-10-07T21:49:13.824Z,7.17
2018-10-07T21:51:41.327Z,7.87
2018-10-07T21:54:08.871Z,5.60
2018-10-07T21:56:36.415Z,10.80
2018-10-07T21:59:03.931Z,7.43
2018-10-07T22:01:31.436Z,6.43
2018-10-07T22:03:59.156Z,6.70
2018-10-07T22:06:26.639Z,5.17
2018-10-07T22:08:54.128Z,6.27
2018-10-07T22:11:21.656Z,7.37
2018-10-07T22:13:49.135Z,8.40
2018-10-07T22:16:16.646Z,6.40
2018-10-07T22:18:44.132Z,9.53
2018-10-07T22:21:11.615Z,9.20
2018-10-07T22:23:39.143Z,9.77
2018-10-07T22:26:06.652Z,8.10
2018-10-07T22:30:56.406Z,7.60
2018-10-07T22:33:23.915Z,9.50
2018-10-07T22:35:51.426Z,10.53
2018-10-07T22:38:18.926Z,5.63
2018-10-07T22:40:46.449Z,7.23
2018-10-07T22:43:13.972Z,6.20
2018-10-07T22:45:41.455Z,6.23
2018-10-07T22:48:08.983Z,8.97
2018-10-07T22:50:36.515Z,7.77
2018-10-07T22:53:04.047Z,7.70
2018-10-07T22:55:31.541Z,5.27
2018-10-07T22:57:59.080Z,8.23
2018-10-07T23:00:26.609Z,5.83
2018-10-07T23:02:54.067Z,19.13
2018-10-07T23:05:21.575Z,9.33
2018-10-07T23:07:49.126Z,5.93
2018-10-07T23:10:16.630Z,9.80
2018-10-07T23:12:44.118Z,5.93
2018-10-07T23:15:11.608Z,5.13
2018-10-07T23:17:39.097Z,8.30
2018-10-07T23:20:06.588Z,4.93
2018-10-07T23:22:34.083Z,7.83
2018-10-07T23:25:01.604Z,6.77
2018-10-07T23:27:29.131Z,5.27
2018-10-07T23:29:56.732Z,8.27
2018-10-07T23:32:24.267Z,5.27
2018-10-07T23:34:51.752Z,6.30
2018-10-07T23:37:19.394Z,4.67
2018-10-07T23:39:46.878Z,6.20
2018-10-07T23:42:14.387Z,5.70
2018-10-07T23:44:41.906Z,5.43
2018-10-07T23:47:09.411Z,6.13
2018-10-07T23:49:36.882Z,3.40
2018-10-07T23:52:04.461Z,4.67
2018-10-07T23:54:31.903Z,5.03
2018-10-07T23:56:59.382Z,5.93
2018-10-07T23:59:26.919Z,5.73
